Terminal Aerodrome Forecast
Issued by NWS

Home | Current Version | Previous Version | Text Only | Print | Product List | Glossary On
Versions: 1 2 3 4 5 6 7 8 9 10 11 12 13 14 15 16 17 18
000
FTUS44 KLZK 020500
TAFPBF
TAF
KPBF 020531Z 0206/0306 06005KT P6SM SCT035
      TEMPO 0209/0213 5SM BR BKN025
     FM021400 07004KT P6SM SCT050=

USA.gov is the U.S. government's official web portal to all federal, state and local government web resources and services.